createdAt,value
2022-12-22T00:01:09.410Z,5.00
2022-12-22T00:03:57.648Z,5.00
2022-12-22T00:06:44.434Z,4.90
2022-12-22T00:09:31.239Z,4.90
2022-12-22T00:12:18.271Z,4.90
2022-12-22T00:15:06.149Z,5.00
2022-12-22T00:17:53.717Z,4.90
2022-12-22T00:20:42.157Z,5.00
2022-12-22T00:23:29.360Z,5.00
2022-12-22T00:26:16.188Z,4.90
2022-12-22T00:29:03.836Z,4.90
2022-12-22T00:31:50.197Z,4.90
2022-12-22T00:34:39.689Z,5.00
2022-12-22T00:37:30.629Z,5.00
2022-12-22T00:40:17.503Z,5.00
2022-12-22T00:43:04.089Z,5.00
2022-12-22T00:45:51.130Z,5.00
2022-12-22T00:48:42.233Z,5.00
2022-12-22T00:51:30.979Z,5.10
2022-12-22T00:54:19.722Z,5.10
2022-12-22T00:57:06.781Z,5.00
2022-12-22T00:59:53.181Z,5.00
2022-12-22T01:02:40.838Z,5.10
2022-12-22T01:05:27.632Z,5.00
2022-12-22T01:08:15.050Z,5.00
2022-12-22T01:11:03.019Z,5.10
2022-12-22T01:13:50.576Z,5.10
2022-12-22T01:16:37.006Z,5.10
2022-12-22T01:19:24.566Z,5.10
2022-12-22T01:22:11.081Z,5.10
2022-12-22T01:24:58.160Z,5.10
2022-12-22T01:27:45.879Z,5.20
2022-12-22T01:30:32.708Z,5.20
2022-12-22T01:33:19.134Z,5.20
2022-12-22T01:36:06.164Z,5.20
2022-12-22T01:38:52.563Z,5.20
2022-12-22T01:41:40.255Z,5.20
2022-12-22T01:44:33.811Z,5.10
2022-12-22T01:47:58.731Z,5.20
2022-12-22T01:50:48.096Z,5.20
2022-12-22T01:53:38.829Z,5.20
2022-12-22T01:56:26.159Z,5.20
2022-12-22T01:59:16.026Z,5.20
2022-12-22T02:02:04.775Z,5.30
2022-12-22T02:04:54.416Z,5.20
2022-12-22T02:08:00.487Z,5.30
2022-12-22T02:11:07.715Z,5.20
2022-12-22T02:14:04.540Z,5.20
2022-12-22T02:16:57.199Z,5.20
2022-12-22T02:20:00.439Z,5.20
2022-12-22T02:22:55.688Z,5.20
2022-12-22T02:25:47.314Z,5.20
2022-12-22T02:28:35.529Z,5.30
2022-12-22T02:31:22.144Z,5.20
2022-12-22T02:34:08.776Z,5.30
2022-12-22T02:37:05.299Z,5.30
2022-12-22T02:40:04.531Z,5.30
2022-12-22T02:42:54.303Z,5.30
2022-12-22T02:45:49.484Z,5.30
2022-12-22T02:48:41.159Z,5.40
2022-12-22T02:51:31.642Z,5.40
2022-12-22T02:54:19.041Z,5.30
2022-12-22T02:57:07.041Z,5.40
2022-12-22T02:59:53.220Z,5.40
2022-12-22T03:02:41.663Z,5.40
2022-12-22T03:05:28.427Z,5.40
2022-12-22T03:08:15.458Z,5.40
2022-12-22T03:11:02.002Z,5.40
2022-12-22T03:13:48.933Z,5.50
2022-12-22T03:16:35.325Z,5.50
2022-12-22T03:19:24.053Z,5.40
2022-12-22T03:22:10.352Z,5.40
2022-12-22T03:24:57.447Z,5.40
2022-12-22T03:27:26.709Z,5.40
2022-12-22T03:29:56.470Z,5.40
2022-12-22T03:32:25.796Z,5.40
2022-12-22T03:34:57.137Z,5.50
2022-12-22T03:37:26.243Z,5.40
2022-12-22T03:39:56.073Z,5.40
2022-12-22T03:42:42.544Z,5.40
2022-12-22T03:45:29.792Z,5.40
2022-12-22T03:47:59.045Z,5.40
2022-12-22T03:50:30.166Z,5.40
2022-12-22T03:52:59.597Z,5.40
2022-12-22T03:55:29.597Z,5.40
2022-12-22T03:57:59.357Z,5.50
2022-12-22T04:00:29.395Z,5.50
2022-12-22T04:03:00.350Z,5.50
2022-12-22T04:05:31.568Z,5.50
2022-12-22T04:08:01.055Z,5.60
2022-12-22T04:10:48.278Z,5.60
2022-12-22T04:13:17.600Z,5.50
2022-12-22T04:15:47.661Z,5.60
2022-12-22T04:18:17.108Z,5.50
2022-12-22T04:20:48.199Z,5.60
2022-12-22T04:23:17.526Z,5.60
2022-12-22T04:25:47.772Z,5.60
2022-12-22T04:28:17.086Z,5.60
2022-12-22T04:30:46.952Z,5.60
2022-12-22T04:33:16.481Z,5.60
2022-12-22T04:35:47.990Z,5.70
2022-12-22T04:38:17.311Z,5.70
2022-12-22T04:40:47.123Z,5.60
2022-12-22T04:43:16.679Z,5.60
2022-12-22T04:45:46.726Z,5.60
2022-12-22T04:48:16.031Z,5.60
2022-12-22T04:50:45.788Z,5.60
2022-12-22T04:53:16.533Z,5.60
2022-12-22T04:55:47.985Z,5.60
2022-12-22T04:58:17.708Z,5.60
2022-12-22T05:00:47.863Z,5.60
2022-12-22T05:03:17.362Z,5.50
2022-12-22T05:05:47.086Z,5.60
2022-12-22T05:08:18.078Z,5.60
2022-12-22T05:10:47.897Z,5.50
2022-12-22T05:13:17.180Z,5.60
2022-12-22T05:15:46.835Z,5.50
2022-12-22T05:18:16.147Z,5.50
2022-12-22T05:20:46.408Z,5.50
2022-12-22T05:23:17.190Z,5.60
2022-12-22T05:25:46.861Z,5.60
2022-12-22T05:28:16.137Z,5.60
2022-12-22T05:30:45.906Z,5.60
2022-12-22T05:33:15.195Z,5.60
2022-12-22T05:35:44.829Z,5.60
2022-12-22T05:38:14.109Z,5.60
2022-12-22T05:40:45.213Z,5.60
2022-12-22T05:43:14.648Z,5.70
2022-12-22T05:45:46.518Z,5.60
2022-12-22T05:48:18.901Z,5.60
2022-12-22T05:50:52.590Z,5.60
2022-12-22T05:53:21.958Z,5.60
2022-12-22T05:55:53.968Z,5.60
2022-12-22T05:58:23.377Z,5.60
2022-12-22T06:00:53.160Z,5.60
2022-12-22T06:03:22.535Z,5.60
2022-12-22T06:05:52.518Z,5.50
2022-12-22T06:08:22.481Z,5.50
2022-12-22T06:10:55.536Z,5.50
2022-12-22T06:13:25.214Z,5.50
2022-12-22T06:15:55.351Z,5.50
2022-12-22T06:18:24.935Z,5.50
2022-12-22T06:20:54.885Z,5.50
2022-12-22T06:23:24.771Z,5.50
2022-12-22T06:26:00.779Z,5.50
2022-12-22T06:28:30.571Z,5.50
2022-12-22T06:31:00.321Z,5.50
2022-12-22T06:33:29.615Z,5.50
2022-12-22T06:35:59.857Z,5.50
2022-12-22T06:38:29.836Z,5.50
2022-12-22T06:41:01.331Z,5.50
2022-12-22T06:43:29.256Z,5.50
2022-12-22T06:45:59.034Z,5.40
2022-12-22T06:48:28.552Z,5.40
2022-12-22T06:51:00.552Z,5.40
2022-12-22T06:53:30.025Z,5.40
2022-12-22T06:56:01.511Z,5.40
2022-12-22T06:58:30.897Z,5.40
2022-12-22T07:01:00.680Z,5.40
2022-12-22T07:03:30.155Z,5.40
2022-12-22T07:05:59.891Z,5.30
2022-12-22T07:08:29.179Z,5.30
2022-12-22T07:11:00.611Z,5.30
2022-12-22T07:13:32.918Z,5.30
2022-12-22T07:16:03.745Z,5.30
2022-12-22T07:18:38.212Z,5.40
2022-12-22T07:21:10.782Z,5.40
2022-12-22T07:23:40.574Z,5.40
2022-12-22T07:26:12.746Z,5.40
2022-12-22T07:28:43.471Z,5.30
2022-12-22T07:31:14.920Z,5.30
2022-12-22T07:33:44.381Z,5.30
2022-12-22T07:36:15.767Z,5.30
2022-12-22T07:38:46.114Z,5.20
2022-12-22T07:41:36.676Z,5.30
2022-12-22T07:44:06.751Z,5.30
2022-12-22T07:46:38.622Z,5.30
2022-12-22T07:49:26.241Z,5.20
2022-12-22T07:51:58.754Z,5.20
2022-12-22T07:54:29.011Z,5.20
2022-12-22T07:57:00.515Z,5.10
2022-12-22T07:59:29.870Z,5.20
2022-12-22T08:01:59.659Z,5.10
2022-12-22T08:04:29.230Z,5.20
2022-12-22T08:06:59.125Z,5.30
2022-12-22T08:09:28.642Z,5.30
2022-12-22T08:12:00.059Z,5.30
2022-12-22T08:14:29.499Z,5.30
2022-12-22T08:16:59.160Z,5.30
2022-12-22T08:19:28.991Z,5.30
2022-12-22T08:21:59.583Z,5.30
2022-12-22T08:24:28.982Z,5.30
2022-12-22T08:27:03.866Z,5.40
2022-12-22T08:29:37.953Z,5.40
2022-12-22T08:32:08.072Z,5.50
2022-12-22T08:34:37.382Z,5.50
2022-12-22T08:37:09.831Z,5.60
2022-12-22T08:39:41.258Z,5.60
2022-12-22T08:42:15.226Z,5.60
2022-12-22T08:44:46.204Z,5.70
2022-12-22T08:47:17.379Z,5.70
2022-12-22T08:49:46.921Z,5.70
2022-12-22T08:52:18.825Z,5.70
2022-12-22T08:54:48.870Z,5.80
2022-12-22T08:57:20.065Z,5.90
2022-12-22T08:59:49.027Z,5.90
2022-12-22T09:02:18.915Z,5.90
2022-12-22T09:04:48.330Z,5.90
2022-12-22T09:07:18.683Z,6.00
2022-12-22T09:09:48.186Z,6.00
2022-12-22T09:12:19.588Z,5.90
2022-12-22T09:14:49.022Z,6.00
2022-12-22T09:17:18.671Z,5.90
2022-12-22T09:19:48.125Z,5.90
2022-12-22T09:22:23.348Z,5.90
2022-12-22T09:24:56.322Z,5.90
2022-12-22T09:27:27.632Z,5.90
2022-12-22T09:29:57.355Z,6.00
2022-12-22T09:32:27.480Z,5.90
2022-12-22T09:34:56.863Z,5.90
2022-12-22T09:37:26.533Z,5.80
2022-12-22T09:39:55.781Z,5.80
2022-12-22T09:42:26.880Z,5.80
2022-12-22T09:44:56.253Z,5.80
2022-12-22T09:47:31.117Z,5.90
2022-12-22T09:50:00.936Z,5.90
2022-12-22T09:52:45.935Z,5.90
2022-12-22T09:55:21.466Z,5.90
2022-12-22T09:57:52.916Z,5.90
2022-12-22T10:00:25.219Z,5.80
2022-12-22T10:03:02.088Z,5.80
2022-12-22T10:05:39.909Z,5.80
2022-12-22T10:08:14.054Z,5.80
2022-12-22T10:10:43.530Z,5.90
2022-12-22T10:13:20.004Z,5.90
2022-12-22T10:15:50.102Z,6.00
2022-12-22T10:18:24.671Z,6.00
2022-12-22T10:21:10.582Z,6.10
2022-12-22T10:23:43.075Z,6.20
2022-12-22T10:26:27.960Z,6.20
2022-12-22T10:29:05.355Z,6.20
2022-12-22T10:31:35.730Z,6.30
2022-12-22T10:34:16.889Z,6.30
2022-12-22T10:36:49.755Z,6.50
2022-12-22T10:39:24.350Z,6.50
2022-12-22T10:41:56.746Z,6.60
2022-12-22T10:44:30.471Z,6.60
2022-12-22T10:47:01.817Z,6.50
2022-12-22T10:52:14.938Z,6.40
2022-12-22T10:54:46.125Z,6.40
2022-12-22T10:57:39.333Z,6.30
2022-12-22T11:00:25.661Z,6.30
2022-12-22T11:02:56.341Z,6.40
2022-12-22T11:05:26.434Z,6.30
2022-12-22T11:07:56.841Z,6.30
2022-12-22T11:10:35.244Z,6.30
2022-12-22T11:13:25.910Z,6.10
2022-12-22T11:16:00.950Z,6.20
2022-12-22T11:18:51.754Z,6.10
2022-12-22T11:21:27.747Z,6.20
2022-12-22T11:24:07.916Z,6.10
2022-12-22T11:26:45.534Z,6.10
2022-12-22T11:29:27.688Z,6.20
2022-12-22T11:32:21.785Z,6.20
2022-12-22T11:34:59.546Z,6.20
2022-12-22T11:37:38.196Z,6.20
2022-12-22T11:40:17.734Z,6.30
2022-12-22T11:43:00.906Z,6.30
2022-12-22T11:45:43.546Z,6.40
2022-12-22T11:48:39.608Z,6.40
2022-12-22T11:51:15.120Z,6.40
2022-12-22T11:54:29.187Z,6.40
2022-12-22T11:57:04.015Z,6.30
2022-12-22T11:59:43.843Z,6.30
2022-12-22T12:02:47.112Z,6.20
2022-12-22T12:05:40.190Z,6.20
2022-12-22T12:08:17.895Z,6.10
2022-12-22T12:10:50.920Z,6.10
2022-12-22T12:13:36.764Z,6.10
2022-12-22T12:16:20.475Z,6.20
2022-12-22T12:19:06.285Z,6.00
2022-12-22T12:21:48.890Z,6.00
2022-12-22T12:24:38.555Z,6.00
2022-12-22T12:27:14.864Z,6.00
2022-12-22T12:30:13.345Z,6.00
2022-12-22T12:32:48.167Z,6.00
2022-12-22T12:35:41.672Z,6.00
2022-12-22T12:38:47.895Z,5.90
2022-12-22T12:41:16.180Z,5.80
2022-12-22T12:43:47.744Z,5.80
2022-12-22T12:46:56.189Z,5.80
2022-12-22T12:49:59.708Z,5.70
2022-12-22T12:53:06.692Z,5.70
2022-12-22T12:55:57.917Z,5.70
2022-12-22T12:58:55.813Z,5.70
2022-12-22T13:01:57.757Z,5.70
2022-12-22T13:05:16.376Z,5.70
2022-12-22T13:08:12.483Z,5.70
2022-12-22T13:10:46.948Z,5.70
2022-12-22T13:13:48.742Z,5.70
2022-12-22T13:16:39.973Z,5.60
2022-12-22T13:19:28.419Z,5.70
2022-12-22T13:21:58.279Z,5.70
2022-12-22T13:24:35.424Z,5.60
2022-12-22T13:27:09.282Z,5.50
2022-12-22T13:29:48.075Z,5.60
2022-12-22T13:32:23.678Z,5.50
2022-12-22T13:37:54.240Z,5.40
2022-12-22T13:40:26.066Z,5.50
2022-12-22T13:42:59.324Z,5.50
2022-12-22T13:45:34.810Z,5.50
2022-12-22T13:48:10.081Z,5.50
2022-12-22T13:50:43.393Z,5.50
2022-12-22T13:53:42.097Z,5.50
2022-12-22T13:56:15.042Z,5.40
2022-12-22T13:58:46.904Z,5.50
2022-12-22T14:01:19.303Z,5.40
2022-12-22T14:04:01.332Z,5.40
2022-12-22T14:06:33.853Z,5.40
2022-12-22T14:09:18.703Z,5.40
2022-12-22T14:11:52.477Z,5.30
2022-12-22T14:14:27.223Z,5.40
2022-12-22T14:16:59.711Z,5.40
2022-12-22T14:19:33.488Z,5.40
2022-12-22T14:22:08.605Z,5.40
2022-12-22T14:24:44.473Z,5.30
2022-12-22T14:27:21.625Z,5.40
2022-12-22T14:29:52.788Z,5.30
2022-12-22T14:32:40.537Z,5.40
2022-12-22T14:35:31.429Z,5.40
2022-12-22T14:38:17.804Z,5.50
2022-12-22T14:40:52.622Z,5.50
2022-12-22T14:43:30.431Z,5.50
2022-12-22T14:46:10.259Z,5.50
2022-12-22T14:48:47.161Z,5.50
2022-12-22T14:51:19.186Z,5.60
2022-12-22T14:53:51.474Z,5.60
2022-12-22T14:56:21.441Z,5.50
2022-12-22T14:58:52.000Z,5.50
2022-12-22T15:01:28.616Z,5.60
2022-12-22T15:04:07.232Z,5.50
2022-12-22T15:06:39.851Z,5.50
2022-12-22T15:10:12.685Z,5.50
2022-12-22T15:12:19.575Z,5.40
2022-12-22T15:14:50.321Z,5.40
2022-12-22T15:17:27.060Z,5.40
2022-12-22T15:19:59.597Z,5.40
2022-12-22T15:22:29.128Z,5.40
2022-12-22T15:24:58.776Z,5.40
2022-12-22T15:27:28.221Z,5.40
2022-12-22T15:29:57.996Z,5.40
2022-12-22T15:32:34.470Z,5.50
2022-12-22T15:35:17.528Z,5.50
2022-12-22T15:37:46.966Z,5.50
2022-12-22T15:40:22.155Z,5.60
2022-12-22T15:42:52.072Z,5.50
2022-12-22T15:45:23.517Z,5.50
2022-12-22T15:47:56.218Z,5.60
2022-12-22T15:50:33.530Z,5.60
2022-12-22T15:53:10.223Z,5.50
2022-12-22T15:55:44.749Z,5.60
2022-12-22T15:58:17.171Z,5.60
2022-12-22T16:00:47.157Z,5.60
2022-12-22T16:03:18.464Z,5.60
2022-12-22T16:05:48.493Z,5.70
2022-12-22T16:08:21.371Z,5.60
2022-12-22T16:10:52.068Z,5.60
2022-12-22T16:13:25.756Z,5.60
2022-12-22T16:15:56.187Z,5.60
2022-12-22T16:18:27.431Z,5.60
2022-12-22T16:21:01.039Z,5.60
2022-12-22T16:23:31.039Z,5.60
2022-12-22T16:26:02.621Z,5.60
2022-12-22T16:28:33.495Z,5.60
2022-12-22T16:31:03.448Z,5.60
2022-12-22T16:33:34.276Z,5.70
2022-12-22T16:36:04.888Z,5.70
2022-12-22T16:38:36.124Z,5.70
2022-12-22T16:41:07.774Z,5.70
2022-12-22T16:43:49.085Z,5.70
2022-12-22T16:46:20.969Z,5.80
2022-12-22T16:48:54.223Z,5.80
2022-12-22T16:51:27.035Z,5.80
2022-12-22T16:53:56.721Z,5.80
2022-12-22T16:56:28.766Z,5.80
2022-12-22T16:59:01.110Z,5.90
2022-12-22T17:01:37.243Z,5.80
2022-12-22T17:04:10.113Z,5.90
2022-12-22T17:06:41.141Z,5.90
2022-12-22T17:09:17.328Z,5.90
2022-12-22T17:11:48.026Z,5.90
2022-12-22T17:14:23.578Z,6.00
2022-12-22T17:16:53.729Z,6.00
2022-12-22T17:19:24.489Z,6.00
2022-12-22T17:21:54.895Z,5.90
2022-12-22T17:24:28.120Z,6.00
2022-12-22T17:27:02.642Z,6.00
2022-12-22T17:29:32.352Z,5.90
2022-12-22T17:32:02.746Z,5.90
2022-12-22T17:34:33.775Z,5.90
2022-12-22T17:37:03.583Z,6.00
2022-12-22T17:39:34.222Z,6.00
2022-12-22T17:42:03.479Z,6.00
2022-12-22T17:44:32.864Z,6.00
2022-12-22T17:47:02.675Z,5.90
2022-12-22T17:49:33.642Z,6.00
2022-12-22T17:52:03.692Z,5.90
2022-12-22T17:54:33.107Z,5.90
2022-12-22T17:57:05.326Z,6.00
2022-12-22T17:59:34.813Z,5.90
2022-12-22T18:02:04.675Z,5.90
2022-12-22T18:04:35.949Z,5.90
2022-12-22T18:07:05.707Z,5.90
2022-12-22T18:09:35.467Z,5.80
2022-12-22T18:12:05.743Z,5.90
2022-12-22T18:14:34.995Z,5.90
2022-12-22T18:17:05.465Z,5.90
2022-12-22T18:19:36.203Z,5.80
2022-12-22T18:22:06.140Z,5.80
2022-12-22T18:24:35.646Z,5.90
2022-12-22T18:27:05.396Z,5.80
2022-12-22T18:29:34.853Z,5.90
2022-12-22T18:32:04.526Z,5.90
2022-12-22T18:34:33.999Z,5.90
2022-12-22T18:37:06.957Z,5.90
2022-12-22T18:39:38.001Z,5.90
2022-12-22T18:42:18.560Z,5.90
2022-12-22T18:44:47.869Z,5.90
2022-12-22T18:47:17.792Z,5.90
2022-12-22T18:49:47.885Z,5.90
2022-12-22T18:52:22.936Z,5.90
2022-12-22T18:54:52.407Z,5.90
2022-12-22T18:57:22.204Z,5.90
2022-12-22T18:59:51.781Z,5.90
2022-12-22T19:02:24.930Z,5.90
2022-12-22T19:04:55.628Z,5.90
2022-12-22T19:07:27.604Z,5.80
2022-12-22T19:09:57.120Z,5.80
2022-12-22T19:12:29.450Z,5.90
2022-12-22T19:15:04.898Z,5.80
2022-12-22T19:17:34.696Z,5.80
2022-12-22T19:20:04.127Z,5.80
2022-12-22T19:22:35.667Z,5.80
2022-12-22T19:25:04.603Z,5.70
2022-12-22T19:27:34.642Z,5.80
2022-12-22T19:30:05.128Z,5.80
2022-12-22T19:32:41.761Z,5.80
2022-12-22T19:35:16.285Z,5.80
2022-12-22T19:37:47.909Z,5.80
2022-12-22T19:40:18.992Z,5.90
2022-12-22T19:42:50.770Z,5.90
2022-12-22T19:45:22.327Z,5.90
2022-12-22T19:47:53.547Z,5.90
2022-12-22T19:50:25.917Z,5.90
2022-12-22T19:52:59.059Z,6.00
2022-12-22T19:55:31.900Z,6.00
2022-12-22T19:58:02.530Z,6.00
2022-12-22T20:00:32.195Z,5.90
2022-12-22T20:03:01.999Z,5.90
2022-12-22T20:05:33.577Z,5.80
2022-12-22T20:08:04.856Z,5.80
2022-12-22T20:10:37.080Z,5.80
2022-12-22T20:13:09.096Z,5.80
2022-12-22T20:15:40.227Z,5.80
2022-12-22T20:18:21.660Z,5.80
2022-12-22T20:20:58.809Z,5.80
2022-12-22T20:23:33.272Z,5.80
2022-12-22T20:26:04.403Z,5.80
2022-12-22T20:28:35.934Z,5.80
2022-12-22T20:31:06.394Z,5.80
2022-12-22T20:33:36.347Z,5.80
2022-12-22T20:36:12.251Z,5.80
2022-12-22T20:38:45.237Z,5.80
2022-12-22T20:41:14.757Z,5.80
2022-12-22T20:43:45.876Z,5.80
2022-12-22T20:46:18.017Z,5.70
2022-12-22T20:48:50.755Z,5.70
2022-12-22T20:51:22.370Z,5.70
2022-12-22T20:53:54.909Z,5.70
2022-12-22T20:56:28.717Z,5.70
2022-12-22T20:58:59.680Z,5.70
2022-12-22T21:01:29.880Z,5.70
2022-12-22T21:03:59.995Z,5.70
2022-12-22T21:06:31.145Z,5.70
2022-12-22T21:09:05.567Z,5.70
2022-12-22T21:11:36.324Z,5.70
2022-12-22T21:14:06.247Z,5.80
2022-12-22T21:16:36.419Z,5.80
2022-12-22T21:19:06.871Z,5.90
2022-12-22T21:21:36.997Z,5.90
2022-12-22T21:24:09.584Z,5.90
2022-12-22T21:26:43.313Z,5.90
2022-12-22T21:29:19.441Z,5.90
2022-12-22T21:31:48.758Z,5.90
2022-12-22T21:34:18.804Z,6.00
2022-12-22T21:36:50.431Z,6.00
2022-12-22T21:39:31.528Z,5.90
2022-12-22T21:42:05.168Z,5.90
2022-12-22T21:44:36.577Z,5.90
2022-12-22T21:47:06.347Z,5.80
2022-12-22T21:49:36.313Z,5.90
2022-12-22T21:52:05.963Z,5.90
2022-12-22T21:54:37.414Z,5.90
2022-12-22T21:57:07.135Z,5.90
2022-12-22T21:59:36.782Z,5.90
2022-12-22T22:02:08.136Z,5.90
2022-12-22T22:04:39.257Z,6.00
2022-12-22T22:07:08.555Z,5.90
2022-12-22T22:09:40.031Z,6.00
2022-12-22T22:12:28.615Z,6.00
2022-12-22T22:15:01.088Z,6.00
2022-12-22T22:17:30.407Z,6.00
2022-12-22T22:20:00.174Z,6.10
2022-12-22T22:22:29.447Z,6.10
2022-12-22T22:25:01.216Z,6.10
2022-12-22T22:27:30.531Z,6.20
2022-12-22T22:30:00.366Z,6.20
2022-12-22T22:32:29.811Z,6.20
2022-12-22T22:35:00.866Z,6.20
2022-12-22T22:37:30.382Z,6.20
2022-12-22T22:40:01.511Z,6.20
2022-12-22T22:42:30.829Z,6.30
2022-12-22T22:45:00.538Z,6.30
2022-12-22T22:47:29.943Z,6.30
2022-12-22T22:49:59.654Z,6.30
2022-12-22T22:52:29.140Z,6.20
2022-12-22T22:54:58.821Z,6.30
2022-12-22T22:57:29.615Z,6.30
2022-12-22T22:59:59.364Z,6.30
2022-12-22T23:02:29.071Z,6.30
2022-12-22T23:04:58.916Z,6.30
2022-12-22T23:07:28.272Z,6.20
2022-12-22T23:09:57.955Z,6.20
2022-12-22T23:12:28.873Z,6.20
2022-12-22T23:14:58.880Z,6.10
2022-12-22T23:17:28.156Z,6.20
2022-12-22T23:19:57.814Z,6.10
2022-12-22T23:22:27.256Z,6.10
2022-12-22T23:24:56.922Z,6.00
2022-12-22T23:27:26.252Z,6.00
2022-12-22T23:29:57.963Z,5.90
2022-12-22T23:32:27.320Z,5.90
2022-12-22T23:34:57.131Z,5.90
2022-12-22T23:37:26.679Z,5.90
2022-12-22T23:40:10.771Z,5.80
2022-12-22T23:42:45.938Z,5.80
2022-12-22T23:45:17.227Z,5.80
2022-12-22T23:47:47.965Z,5.80
2022-12-22T23:50:18.142Z,5.70
2022-12-22T23:52:49.428Z,5.80
2022-12-22T23:55:19.664Z,5.70
2022-12-22T23:57:50.658Z,5.70
